sensor_id;sensor_type;location;lat;lon;timestamp;pressure;altitude;pressure_sealevel;temperature;humidity
64253;BME280;50592;52.958;-7.470;2024-03-06T01:31:16;100418.41;;;4.92;100.00
64253;BME280;50592;52.958;-7.470;2024-03-06T01:34:04;100418.28;;;4.94;100.00
64253;BME280;50592;52.958;-7.470;2024-03-06T01:40:54;100419.25;;;4.93;100.00
64253;BME280;50592;52.958;-7.470;2024-03-06T01:43:46;100416.84;;;4.90;100.00
64253;BME280;50592;52.958;-7.470;2024-03-06T01:47:12;100409.00;;;4.90;100.00
64253;BME280;50592;52.958;-7.470;2024-03-06T01:50:25;100410.31;;;4.95;100.00
64253;BME280;50592;52.958;-7.470;2024-03-06T01:53:40;100408.88;;;4.91;100.00
64253;BME280;50592;52.958;-7.470;2024-03-06T01:56:09;100417.97;;;4.99;100.00
64253;BME280;50592;52.958;-7.470;2024-03-06T02:04:22;100397.63;;;4.65;100.00
64253;BME280;50592;52.958;-7.470;2024-03-06T02:13:59;100402.53;;;4.17;100.00
64253;BME280;50592;52.958;-7.470;2024-03-06T02:17:51;100402.88;;;4.26;100.00
64253;BME280;50592;52.958;-7.470;2024-03-06T02:21:21;100397.09;;;4.20;100.00
64253;BME280;50592;52.958;-7.470;2024-03-06T02:23:47;100399.63;;;4.22;100.00
64253;BME280;50592;52.958;-7.470;2024-03-06T02:26:41;100398.28;;;4.29;100.00
64253;BME280;50592;52.958;-7.470;2024-03-06T02:29:48;100402.75;;;4.27;100.00
64253;BME280;50592;52.958;-7.470;2024-03-06T02:36:22;100387.38;;;4.22;100.00
64253;BME280;50592;52.958;-7.470;2024-03-06T02:42:27;100386.84;;;4.17;100.00
64253;BME280;50592;52.958;-7.470;2024-03-06T02:45:41;100384.31;;;4.16;100.00
64253;BME280;50592;52.958;-7.470;2024-03-06T02:48:07;100389.34;;;4.19;100.00
64253;BME280;50592;52.958;-7.470;2024-03-06T02:51:03;100382.78;;;4.26;100.00
64253;BME280;50592;52.958;-7.470;2024-03-06T02:53:58;100375.88;;;4.25;100.00
64253;BME280;50592;52.958;-7.470;2024-03-06T03:00:27;100368.13;;;4.11;100.00
64253;BME280;50592;52.958;-7.470;2024-03-06T03:02:53;100362.47;;;4.04;100.00
64253;BME280;50592;52.958;-7.470;2024-03-06T03:05:19;100360.16;;;3.99;100.00
64253;BME280;50592;52.958;-7.470;2024-03-06T03:12:01;100363.16;;;3.80;100.00
64253;BME280;50592;52.958;-7.470;2024-03-06T03:14:39;100357.50;;;3.73;100.00
64253;BME280;50592;52.958;-7.470;2024-03-06T03:17:43;100357.09;;;3.66;100.00
64253;BME280;50592;52.958;-7.470;2024-03-06T03:21:40;100361.47;;;3.66;100.00
64253;BME280;50592;52.958;-7.470;2024-03-06T03:25:03;100360.84;;;3.62;100.00
64253;BME280;50592;52.958;-7.470;2024-03-06T03:28:22;100353.59;;;3.53;100.00
64253;BME280;50592;52.958;-7.470;2024-03-06T03:35:39;100354.34;;;3.55;100.00
64253;BME280;50592;52.958;-7.470;2024-03-06T03:38:52;100352.25;;;3.60;100.00
64253;BME280;50592;52.958;-7.470;2024-03-06T03:41:28;100350.69;;;3.57;100.00
64253;BME280;50592;52.958;-7.470;2024-03-06T03:43:57;100341.50;;;3.52;100.00
64253;BME280;50592;52.958;-7.470;2024-03-06T03:49:15;100337.69;;;3.43;100.00
64253;BME280;50592;52.958;-7.470;2024-03-06T04:01:46;100321.97;;;3.30;100.00
64253;BME280;50592;52.958;-7.470;2024-03-06T04:23:27;100322.28;;;4.18;100.00
64253;BME280;50592;52.958;-7.470;2024-03-06T04:29:23;100317.53;;;4.49;100.00
64253;BME280;50592;52.958;-7.470;2024-03-06T04:31:49;100318.66;;;4.58;100.00
64253;BME280;50592;52.958;-7.470;2024-03-06T04:37:50;100331.84;;;4.94;100.00
64253;BME280;50592;52.958;-7.470;2024-03-06T04:40:45;100320.94;;;5.00;100.00
64253;BME280;50592;52.958;-7.470;2024-03-06T04:50:56;100333.41;;;5.45;100.00
64253;BME280;50592;52.958;-7.470;2024-03-06T04:57:45;100333.03;;;5.75;100.00
64253;BME280;50592;52.958;-7.470;2024-03-06T05:00:46;100336.00;;;5.81;100.00
64253;BME280;50592;52.958;-7.470;2024-03-06T05:08:46;100326.16;;;5.96;100.00
64253;BME280;50592;52.958;-7.470;2024-03-06T05:11:13;100338.34;;;6.09;100.00
64253;BME280;50592;52.958;-7.470;2024-03-06T05:13:41;100323.34;;;6.11;100.00
64253;BME280;50592;52.958;-7.470;2024-03-06T05:16:10;100341.59;;;6.24;100.00
64253;BME280;50592;52.958;-7.470;2024-03-06T05:22:31;100332.53;;;6.28;100.00
64253;BME280;50592;52.958;-7.470;2024-03-06T05:25:06;100337.41;;;6.33;100.00
64253;BME280;50592;52.958;-7.470;2024-03-06T05:27:32;100322.03;;;6.28;100.00
64253;BME280;50592;52.958;-7.470;2024-03-06T05:33:24;100333.94;;;6.32;100.00
64253;BME280;50592;52.958;-7.470;2024-03-06T05:36:01;100325.97;;;6.34;100.00
64253;BME280;50592;52.958;-7.470;2024-03-06T05:38:27;100314.03;;;6.30;100.00
64253;BME280;50592;52.958;-7.470;2024-03-06T05:40:56;100332.78;;;6.37;100.00
64253;BME280;50592;52.958;-7.470;2024-03-06T05:43:28;100324.78;;;6.38;100.00
64253;BME280;50592;52.958;-7.470;2024-03-06T05:45:53;100322.50;;;6.33;100.00
64253;BME280;50592;52.958;-7.470;2024-03-06T05:48:22;100322.97;;;6.39;100.00
64253;BME280;50592;52.958;-7.470;2024-03-06T05:50:49;100319.97;;;6.43;100.00
64253;BME280;50592;52.958;-7.470;2024-03-06T05:53:40;100325.72;;;6.49;100.00
64253;BME280;50592;52.958;-7.470;2024-03-06T05:56:23;100330.97;;;6.49;100.00
64253;BME280;50592;52.958;-7.470;2024-03-06T05:58:57;100308.91;;;6.51;100.00
64253;BME280;50592;52.958;-7.470;2024-03-06T06:04:45;100321.66;;;6.56;100.00
64253;BME280;50592;52.958;-7.470;2024-03-06T06:07:17;100321.78;;;6.54;100.00
64253;BME280;50592;52.958;-7.470;2024-03-06T06:09:46;100320.81;;;6.55;100.00
64253;BME280;50592;52.958;-7.470;2024-03-06T06:12:15;100332.19;;;6.56;100.00
64253;BME280;50592;52.958;-7.470;2024-03-06T06:15:30;100338.84;;;6.60;100.00
64253;BME280;50592;52.958;-7.470;2024-03-06T06:18:08;100329.19;;;6.61;100.00
64253;BME280;50592;52.958;-7.470;2024-03-06T06:20:37;100338.25;;;6.56;100.00
64253;BME280;50592;52.958;-7.470;2024-03-06T06:23:28;100324.75;;;6.61;100.00
64253;BME280;50592;52.958;-7.470;2024-03-06T06:26:19;100328.69;;;6.55;100.00
64253;BME280;50592;52.958;-7.470;2024-03-06T06:29:08;100326.81;;;6.57;100.00
64253;BME280;50592;52.958;-7.470;2024-03-06T06:32:03;100329.63;;;6.66;100.00
64253;BME280;50592;52.958;-7.470;2024-03-06T06:34:55;100332.63;;;6.61;100.00
64253;BME280;50592;52.958;-7.470;2024-03-06T06:37:56;100328.69;;;6.67;100.00
64253;BME280;50592;52.958;-7.470;2024-03-06T06:40:46;100331.78;;;6.72;100.00
64253;BME280;50592;52.958;-7.470;2024-03-06T06:43:47;100319.84;;;6.68;100.00
64253;BME280;50592;52.958;-7.470;2024-03-06T06:46:15;100331.56;;;6.64;100.00
64253;BME280;50592;52.958;-7.470;2024-03-06T06:49:08;100327.72;;;6.68;100.00
64253;BME280;50592;52.958;-7.470;2024-03-06T06:52:12;100340.13;;;6.77;100.00
64253;BME280;50592;52.958;-7.470;2024-03-06T06:54:50;100339.19;;;6.78;100.00
64253;BME280;50592;52.958;-7.470;2024-03-06T06:57:16;100321.25;;;6.72;100.00
64253;BME280;50592;52.958;-7.470;2024-03-06T06:59:44;100346.09;;;6.79;100.00
64253;BME280;50592;52.958;-7.470;2024-03-06T07:02:11;100335.25;;;6.73;100.00
64253;BME280;50592;52.958;-7.470;2024-03-06T07:05:01;100340.13;;;6.77;100.00
64253;BME280;50592;52.958;-7.470;2024-03-06T07:07:31;100339.44;;;6.75;100.00
64253;BME280;50592;52.958;-7.470;2024-03-06T07:10:22;100334.75;;;6.79;100.00
64253;BME280;50592;52.958;-7.470;2024-03-06T07:12:57;100337.03;;;6.72;100.00
64253;BME280;50592;52.958;-7.470;2024-03-06T07:15:44;100336.56;;;6.78;100.00
64253;BME280;50592;52.958;-7.470;2024-03-06T07:18:12;100343.59;;;6.78;100.00
64253;BME280;50592;52.958;-7.470;2024-03-06T07:20:49;100353.75;;;6.71;100.00
64253;BME280;50592;52.958;-7.470;2024-03-06T07:23:34;100334.19;;;6.75;100.00
64253;BME280;50592;52.958;-7.470;2024-03-06T07:26:19;100339.31;;;6.77;100.00
64253;BME280;50592;52.958;-7.470;2024-03-06T07:28:45;100358.50;;;6.77;100.00
64253;BME280;50592;52.958;-7.470;2024-03-06T07:31:11;100352.44;;;6.77;100.00
64253;BME280;50592;52.958;-7.470;2024-03-06T07:33:49;100350.03;;;6.85;100.00
64253;BME280;50592;52.958;-7.470;2024-03-06T07:36:31;100342.38;;;6.82;100.00
64253;BME280;50592;52.958;-7.470;2024-03-06T07:39:03;100340.59;;;6.82;100.00
64253;BME280;50592;52.958;-7.470;2024-03-06T07:41:37;100344.78;;;6.85;100.00
64253;BME280;50592;52.958;-7.470;2024-03-06T07:44:32;100355.03;;;6.88;100.00
64253;BME280;50592;52.958;-7.470;2024-03-06T07:47:09;100354.78;;;6.91;100.00
64253;BME280;50592;52.958;-7.470;2024-03-06T07:50:17;100342.75;;;6.89;100.00
64253;BME280;50592;52.958;-7.470;2024-03-06T07:53:56;100357.88;;;6.97;100.00
64253;BME280;50592;52.958;-7.470;2024-03-06T07:57:06;100355.25;;;6.97;100.00
64253;BME280;50592;52.958;-7.470;2024-03-06T08:00:06;100352.25;;;7.01;100.00
64253;BME280;50592;52.958;-7.470;2024-03-06T08:03:40;100354.28;;;6.98;100.00
64253;BME280;50592;52.958;-7.470;2024-03-06T08:06:20;100343.66;;;6.99;100.00
64253;BME280;50592;52.958;-7.470;2024-03-06T08:08:53;100350.84;;;6.97;100.00
64253;BME280;50592;52.958;-7.470;2024-03-06T08:18:33;100352.72;;;7.06;100.00
64253;BME280;50592;52.958;-7.470;2024-03-06T08:21:06;100343.91;;;6.96;100.00
64253;BME280;50592;52.958;-7.470;2024-03-06T08:28:02;100349.63;;;7.01;100.00
64253;BME280;50592;52.958;-7.470;2024-03-06T08:31:53;100350.25;;;6.93;100.00
64253;BME280;50592;52.958;-7.470;2024-03-06T08:34:25;100365.66;;;6.98;100.00
64253;BME280;50592;52.958;-7.470;2024-03-06T08:37:30;100358.72;;;6.97;100.00
64253;BME280;50592;52.958;-7.470;2024-03-06T08:40:19;100364.13;;;6.95;100.00
64253;BME280;50592;52.958;-7.470;2024-03-06T08:42:49;100360.28;;;7.00;100.00
64253;BME280;50592;52.958;-7.470;2024-03-06T08:48:13;100360.16;;;7.01;100.00
64253;BME280;50592;52.958;-7.470;2024-03-06T08:50:43;100345.47;;;6.99;100.00
64253;BME280;50592;52.958;-7.470;2024-03-06T09:01:21;100370.03;;;7.09;100.00
64253;BME280;50592;52.958;-7.470;2024-03-06T09:04:15;100360.97;;;7.13;100.00
64253;BME280;50592;52.958;-7.470;2024-03-06T09:10:08;100380.16;;;7.25;100.00
64253;BME280;50592;52.958;-7.470;2024-03-06T09:16:22;100373.09;;;7.37;100.00
64253;BME280;50592;52.958;-7.470;2024-03-06T09:19:26;100383.66;;;7.47;100.00
64253;BME280;50592;52.958;-7.470;2024-03-06T09:33:24;100384.81;;;7.66;100.00
64253;BME280;50592;52.958;-7.470;2024-03-06T09:40:24;100374.78;;;7.81;100.00
64253;BME280;50592;52.958;-7.470;2024-03-06T09:42:59;100375.69;;;7.91;100.00
64253;BME280;50592;52.958;-7.470;2024-03-06T09:45:25;100376.09;;;7.87;100.00
64253;BME280;50592;52.958;-7.470;2024-03-06T09:47:51;100370.44;;;7.91;100.00
64253;BME280;50592;52.958;-7.470;2024-03-06T09:50:32;100375.19;;;7.98;100.00
64253;BME280;50592;52.958;-7.470;2024-03-06T09:53:27;100384.22;;;8.05;100.00
64253;BME280;50592;52.958;-7.470;2024-03-06T09:56:46;100370.81;;;8.08;100.00
64253;BME280;50592;52.958;-7.470;2024-03-06T09:59:13;100376.72;;;8.00;100.00
64253;BME280;50592;52.958;-7.470;2024-03-06T10:07:10;100373.88;;;8.13;100.00
64253;BME280;50592;52.958;-7.470;2024-03-06T10:10:53;100375.03;;;8.21;100.00
64253;BME280;50592;52.958;-7.470;2024-03-06T10:13:44;100375.59;;;8.24;100.00
64253;BME280;50592;52.958;-7.470;2024-03-06T10:22:41;100355.50;;;8.23;100.00
64253;BME280;50592;52.958;-7.470;2024-03-06T10:25:42;100370.13;;;8.37;100.00
64253;BME280;50592;52.958;-7.470;2024-03-06T10:28:33;100381.66;;;8.46;100.00
64253;BME280;50592;52.958;-7.470;2024-03-06T10:31:07;100366.97;;;8.43;100.00
64253;BME280;50592;52.958;-7.470;2024-03-06T10:34:09;100369.06;;;8.50;100.00
64253;BME280;50592;52.958;-7.470;2024-03-06T10:36:35;100367.53;;;8.47;100.00
64253;BME280;50592;52.958;-7.470;2024-03-06T10:39:13;100370.84;;;8.49;100.00
64253;BME280;50592;52.958;-7.470;2024-03-06T10:41:46;100366.44;;;8.50;100.00
64253;BME280;50592;52.958;-7.470;2024-03-06T10:44:34;100370.59;;;8.52;100.00
64253;BME280;50592;52.958;-7.470;2024-03-06T10:47:08;100364.69;;;8.60;100.00
64253;BME280;50592;52.958;-7.470;2024-03-06T10:49:36;100366.63;;;8.58;100.00
64253;BME280;50592;52.958;-7.470;2024-03-06T10:52:59;100368.28;;;8.59;100.00
64253;BME280;50592;52.958;-7.470;2024-03-06T11:02:09;100367.44;;;8.59;100.00
64253;BME280;50592;52.958;-7.470;2024-03-06T11:04:37;100362.56;;;8.54;100.00
64253;BME280;50592;52.958;-7.470;2024-03-06T11:07:19;100376.34;;;8.58;100.00
64253;BME280;50592;52.958;-7.470;2024-03-06T11:09:47;100369.91;;;8.50;100.00
64253;BME280;50592;52.958;-7.470;2024-03-06T11:12:50;100371.19;;;8.56;100.00
64253;BME280;50592;52.958;-7.470;2024-03-06T11:15:41;100374.69;;;8.56;100.00
64253;BME280;50592;52.958;-7.470;2024-03-06T11:27:06;100388.47;;;8.49;100.00
64253;BME280;50592;52.958;-7.470;2024-03-06T11:30:10;100382.38;;;8.48;100.00
64253;BME280;50592;52.958;-7.470;2024-03-06T11:33:19;100383.63;;;8.54;100.00
64253;BME280;50592;52.958;-7.470;2024-03-06T11:39:15;100389.63;;;8.56;100.00
64253;BME280;50592;52.958;-7.470;2024-03-06T11:42:14;100384.38;;;8.56;100.00
64253;BME280;50592;52.958;-7.470;2024-03-06T11:45:20;100383.97;;;8.61;100.00
64253;BME280;50592;52.958;-7.470;2024-03-06T11:48:02;100394.94;;;8.66;100.00
64253;BME280;50592;52.958;-7.470;2024-03-06T11:50:42;100397.31;;;8.69;100.00
64253;BME280;50592;52.958;-7.470;2024-03-06T11:53:17;100390.38;;;8.68;100.00
64253;BME280;50592;52.958;-7.470;2024-03-06T11:55:58;100386.25;;;8.75;100.00
64253;BME280;50592;52.958;-7.470;2024-03-06T11:58:24;100385.09;;;8.68;100.00
64253;BME280;50592;52.958;-7.470;2024-03-06T12:00:52;100384.97;;;8.69;100.00
64253;BME280;50592;52.958;-7.470;2024-03-06T12:03:33;100392.06;;;8.69;100.00
64253;BME280;50592;52.958;-7.470;2024-03-06T12:06:11;100380.13;;;8.75;100.00
64253;BME280;50592;52.958;-7.470;2024-03-06T12:09:14;100388.47;;;8.80;100.00
64253;BME280;50592;52.958;-7.470;2024-03-06T12:11:41;100389.44;;;8.79;100.00
64253;BME280;50592;52.958;-7.470;2024-03-06T12:14:29;100384.19;;;8.89;100.00
64253;BME280;50592;52.958;-7.470;2024-03-06T12:17:30;100383.38;;;8.88;100.00
64253;BME280;50592;52.958;-7.470;2024-03-06T12:20:31;100379.94;;;8.98;100.00
64253;BME280;50592;52.958;-7.470;2024-03-06T12:23:43;100376.59;;;9.05;100.00
64253;BME280;50592;52.958;-7.470;2024-03-06T12:26:23;100387.19;;;9.15;100.00
64253;BME280;50592;52.958;-7.470;2024-03-06T12:29:08;100384.25;;;9.18;100.00
64253;BME280;50592;52.958;-7.470;2024-03-06T12:31:46;100382.72;;;9.26;100.00
64253;BME280;50592;52.958;-7.470;2024-03-06T12:34:20;100373.00;;;9.16;100.00
64253;BME280;50592;52.958;-7.470;2024-03-06T12:36:50;100379.00;;;9.28;100.00
64253;BME280;50592;52.958;-7.470;2024-03-06T12:39:19;100383.88;;;9.33;100.00
64253;BME280;50592;52.958;-7.470;2024-03-06T12:42:05;100379.00;;;9.38;100.00
64253;BME280;50592;52.958;-7.470;2024-03-06T12:44:35;100352.19;;;9.43;100.00
64253;BME280;50592;52.958;-7.470;2024-03-06T12:47:10;100384.69;;;9.43;100.00
64253;BME280;50592;52.958;-7.470;2024-03-06T12:49:36;100386.91;;;9.38;100.00
64253;BME280;50592;52.958;-7.470;2024-03-06T12:55:05;100381.78;;;9.47;100.00
64253;BME280;50592;52.958;-7.470;2024-03-06T12:57:46;100380.13;;;9.46;100.00
64253;BME280;50592;52.958;-7.470;2024-03-06T13:00:21;100380.81;;;9.48;100.00
64253;BME280;50592;52.958;-7.470;2024-03-06T13:02:57;100382.88;;;9.54;100.00
64253;BME280;50592;52.958;-7.470;2024-03-06T13:06:01;100378.44;;;9.64;100.00
64253;BME280;50592;52.958;-7.470;2024-03-06T13:08:59;100383.88;;;9.63;100.00
64253;BME280;50592;52.958;-7.470;2024-03-06T13:12:09;100382.75;;;9.75;100.00
64253;BME280;50592;52.958;-7.470;2024-03-06T13:14:41;100371.09;;;9.68;100.00
64253;BME280;50592;52.958;-7.470;2024-03-06T13:17:13;100371.75;;;9.70;100.00
64253;BME280;50592;52.958;-7.470;2024-03-06T13:19:48;100370.81;;;9.71;100.00
64253;BME280;50592;52.958;-7.470;2024-03-06T13:22:51;100379.25;;;9.75;100.00
64253;BME280;50592;52.958;-7.470;2024-03-06T13:25:24;100368.31;;;9.70;100.00
64253;BME280;50592;52.958;-7.470;2024-03-06T13:27:57;100359.41;;;9.61;100.00
64253;BME280;50592;52.958;-7.470;2024-03-06T13:30:37;100354.84;;;9.53;100.00
64253;BME280;50592;52.958;-7.470;2024-03-06T13:33:37;100361.91;;;9.52;100.00
64253;BME280;50592;52.958;-7.470;2024-03-06T13:37:12;100362.03;;;9.51;100.00
64253;BME280;50592;52.958;-7.470;2024-03-06T13:39:58;100364.16;;;9.47;100.00
64253;BME280;50592;52.958;-7.470;2024-03-06T13:43:09;100368.59;;;9.57;100.00
64253;BME280;50592;52.958;-7.470;2024-03-06T13:46:11;100365.25;;;9.54;100.00
64253;BME280;50592;52.958;-7.470;2024-03-06T13:48:39;100370.81;;;9.61;100.00
64253;BME280;50592;52.958;-7.470;2024-03-06T13:51:09;100364.13;;;9.67;100.00
64253;BME280;50592;52.958;-7.470;2024-03-06T13:53:43;100358.84;;;9.67;100.00
64253;BME280;50592;52.958;-7.470;2024-03-06T13:56:32;100350.94;;;9.77;100.00
64253;BME280;50592;52.958;-7.470;2024-03-06T14:01:55;100356.47;;;9.93;100.00
64253;BME280;50592;52.958;-7.470;2024-03-06T16:56:25;100354.00;;;9.52;100.00
64253;BME280;50592;52.958;-7.470;2024-03-06T17:02:18;100363.75;;;9.52;100.00
64253;BME280;50592;52.958;-7.470;2024-03-06T17:06:00;100353.47;;;9.39;100.00
64253;BME280;50592;52.958;-7.470;2024-03-06T17:08:40;100368.31;;;9.40;100.00
64253;BME280;50592;52.958;-7.470;2024-03-06T17:11:11;100360.25;;;9.41;100.00
64253;BME280;50592;52.958;-7.470;2024-03-06T17:17:46;100367.63;;;9.38;100.00
64253;BME280;50592;52.958;-7.470;2024-03-06T17:20:52;100370.13;;;9.39;100.00
64253;BME280;50592;52.958;-7.470;2024-03-06T17:27:00;100365.81;;;9.38;100.00
64253;BME280;50592;52.958;-7.470;2024-03-06T17:32:46;100377.34;;;9.37;100.00
64253;BME280;50592;52.958;-7.470;2024-03-06T17:35:23;100388.59;;;9.39;100.00
64253;BME280;50592;52.958;-7.470;2024-03-06T17:37:59;100372.19;;;9.36;100.00
64253;BME280;50592;52.958;-7.470;2024-03-06T17:40:31;100382.75;;;9.36;100.00
64253;BME280;50592;52.958;-7.470;2024-03-06T17:43:40;100386.09;;;9.38;100.00
64253;BME280;50592;52.958;-7.470;2024-03-06T17:46:14;100388.00;;;9.26;100.00
64253;BME280;50592;52.958;-7.470;2024-03-06T17:48:48;100389.28;;;9.32;100.00
64253;BME280;50592;52.958;-7.470;2024-03-06T17:51:15;100405.78;;;9.34;100.00
64253;BME280;50592;52.958;-7.470;2024-03-06T17:53:43;100400.22;;;9.37;100.00
64253;BME280;50592;52.958;-7.470;2024-03-06T17:56:15;100405.91;;;9.32;100.00
64253;BME280;50592;52.958;-7.470;2024-03-06T17:58:49;100408.28;;;9.35;100.00
64253;BME280;50592;52.958;-7.470;2024-03-06T18:01:18;100412.03;;;9.33;100.00
64253;BME280;50592;52.958;-7.470;2024-03-06T18:03:49;100407.19;;;9.28;100.00
64253;BME280;50592;52.958;-7.470;2024-03-06T18:06:19;100408.16;;;9.37;100.00
64253;BME280;50592;52.958;-7.470;2024-03-06T18:09:02;100410.13;;;9.35;100.00
64253;BME280;50592;52.958;-7.470;2024-03-06T18:11:41;100408.97;;;9.27;100.00
64253;BME280;50592;52.958;-7.470;2024-03-06T18:14:33;100419.25;;;9.30;100.00
64253;BME280;50592;52.958;-7.470;2024-03-06T18:16:59;100414.25;;;9.27;100.00
64253;BME280;50592;52.958;-7.470;2024-03-06T18:19:44;100427.03;;;9.32;100.00
64253;BME280;50592;52.958;-7.470;2024-03-06T18:22:10;100425.78;;;9.26;100.00
64253;BME280;50592;52.958;-7.470;2024-03-06T18:24:36;100426.88;;;9.24;100.00
64253;BME280;50592;52.958;-7.470;2024-03-06T18:27:13;100427.44;;;9.27;100.00
64253;BME280;50592;52.958;-7.470;2024-03-06T18:30:22;100427.31;;;9.29;100.00
64253;BME280;50592;52.958;-7.470;2024-03-06T18:33:00;100418.13;;;9.23;100.00
64253;BME280;50592;52.958;-7.470;2024-03-06T18:36:41;100427.00;;;9.22;100.00
64253;BME280;50592;52.958;-7.470;2024-03-06T18:39:20;100436.75;;;9.22;100.00
64253;BME280;50592;52.958;-7.470;2024-03-06T18:42:32;100444.66;;;9.22;100.00
64253;BME280;50592;52.958;-7.470;2024-03-06T18:45:11;100453.38;;;9.22;100.00
64253;BME280;50592;52.958;-7.470;2024-03-06T18:48:06;100453.78;;;9.17;100.00
64253;BME280;50592;52.958;-7.470;2024-03-06T18:50:55;100446.97;;;9.15;100.00
64253;BME280;50592;52.958;-7.470;2024-03-06T18:54:08;100466.28;;;9.15;100.00
64253;BME280;50592;52.958;-7.470;2024-03-06T18:56:40;100460.84;;;9.07;100.00
64253;BME280;50592;52.958;-7.470;2024-03-06T18:59:15;100462.66;;;9.16;100.00
64253;BME280;50592;52.958;-7.470;2024-03-06T19:02:17;100461.13;;;9.04;100.00
64253;BME280;50592;52.958;-7.470;2024-03-06T19:05:29;100453.22;;;9.04;100.00
64253;BME280;50592;52.958;-7.470;2024-03-06T19:07:57;100462.78;;;9.05;100.00
64253;BME280;50592;52.958;-7.470;2024-03-06T19:10:43;100467.22;;;9.04;100.00
64253;BME280;50592;52.958;-7.470;2024-03-06T19:13:12;100470.50;;;8.97;100.00
64253;BME280;50592;52.958;-7.470;2024-03-06T19:16:11;100485.41;;;9.08;100.00
64253;BME280;50592;52.958;-7.470;2024-03-06T19:18:44;100476.34;;;9.00;100.00
64253;BME280;50592;52.958;-7.470;2024-03-06T19:22:19;100474.00;;;8.97;100.00
64253;BME280;50592;52.958;-7.470;2024-03-06T19:25:15;100482.59;;;8.99;100.00
64253;BME280;50592;52.958;-7.470;2024-03-06T19:27:50;100485.50;;;8.96;100.00
64253;BME280;50592;52.958;-7.470;2024-03-06T19:30:53;100477.59;;;8.96;100.00
64253;BME280;50592;52.958;-7.470;2024-03-06T19:33:36;100491.72;;;8.95;100.00
64253;BME280;50592;52.958;-7.470;2024-03-06T19:36:09;100482.16;;;8.94;100.00
64253;BME280;50592;52.958;-7.470;2024-03-06T19:39:11;100482.28;;;8.92;100.00
64253;BME280;50592;52.958;-7.470;2024-03-06T19:45:21;100496.72;;;8.88;100.00
64253;BME280;50592;52.958;-7.470;2024-03-06T19:47:47;100501.47;;;8.95;100.00
64253;BME280;50592;52.958;-7.470;2024-03-06T19:50:13;100505.19;;;8.92;100.00
64253;BME280;50592;52.958;-7.470;2024-03-06T19:53:22;100508.97;;;8.99;100.00
64253;BME280;50592;52.958;-7.470;2024-03-06T20:00:03;100508.13;;;8.99;100.00
64253;BME280;50592;52.958;-7.470;2024-03-06T20:05:56;100506.41;;;8.88;100.00
64253;BME280;50592;52.958;-7.470;2024-03-06T23:11:41;100582.41;;;8.83;100.00
